EGPE/INV METAR and TAF weather

Enter ICAO airport designator
Station Type Date Time Source
EGPE METAR 2020/07/05 15:20 UTC NOAA

EGPE 051520Z 24011KT 9999 VCSH FEW022CB SCT034 16/09 Q0996


Station Type Date Time Source
EGPE Decoded METAR 2020/07/05 15:20 UTC NOAA

Inverness / Dalcross, United Kingdom (EGPE) 57-32N 004-03W 0M
Jul 05, 2020 - 11:20 AM EDT / 2020.07.05 1520 UTC
Wind: from the WSW (240 degrees) at 13 MPH (11 KT):0
Visibility: greater than 7 mile(s):0
Sky conditions: partly cloudy
Weather: showers in the vicinity; Cumulonimbus clouds observed
Temperature: 60 F (16 C)
Dew Point: 48 F (9 C)
Relative Humidity: 63%
Pressure (altimeter): 29.41 in. Hg (0996 hPa)
ob: EGPE 051520Z 24011KT 9999 VCSH FEW022CB SCT034 16/09 Q0996
cycle: 15

Station Type Date Time Source
EGPE TAF UTC NOAA

Error!

Example: see airport list